sensor_id;sensor_type;location;lat;lon;timestamp;noise_LAeq;noise_LA_min;noise_LA_max;noise_LA01;noise_LA95
69616;Laerm;56822;52.516;4.708;2023-06-14T00:00:08;43.76;38.14;48.54;;
69616;Laerm;56822;52.516;4.708;2023-06-14T00:00:19;43.14;40.06;46.75;;
69616;Laerm;56822;52.516;4.708;2023-06-14T00:00:30;42.17;38.66;45.33;;
69616;Laerm;56822;52.516;4.708;2023-06-14T00:00:41;45.40;41.12;49.34;;
69616;Laerm;56822;52.516;4.708;2023-06-14T00:00:53;42.08;37.36;47.15;;
69616;Laerm;56822;52.516;4.708;2023-06-14T00:01:03;42.74;39.42;47.00;;
69616;Laerm;56822;52.516;4.708;2023-06-14T00:01:16;41.81;38.54;45.67;;
69616;Laerm;56822;52.516;4.708;2023-06-14T00:01:27;37.90;35.08;42.57;;
69616;Laerm;56822;52.516;4.708;2023-06-14T00:01:37;37.23;35.04;39.69;;
69616;Laerm;56822;52.516;4.708;2023-06-14T00:01:48;40.11;37.16;43.23;;
69616;Laerm;56822;52.516;4.708;2023-06-14T00:01:58;44.58;40.10;49.87;;
69616;Laerm;56822;52.516;4.708;2023-06-14T00:02:09;43.44;39.22;49.48;;
69616;Laerm;56822;52.516;4.708;2023-06-14T00:02:19;46.07;38.69;54.67;;
69616;Laerm;56822;52.516;4.708;2023-06-14T00:02:29;50.05;39.68;60.19;;
69616;Laerm;56822;52.516;4.708;2023-06-14T00:02:40;40.83;36.93;48.92;;
69616;Laerm;56822;52.516;4.708;2023-06-14T00:02:51;42.89;37.66;48.71;;
69616;Laerm;56822;52.516;4.708;2023-06-14T00:03:02;40.45;37.79;44.04;;
69616;Laerm;56822;52.516;4.708;2023-06-14T00:03:13;40.47;38.00;44.83;;
69616;Laerm;56822;52.516;4.708;2023-06-14T00:03:27;41.98;37.95;45.29;;
69616;Laerm;56822;52.516;4.708;2023-06-14T00:03:37;43.41;38.30;49.34;;
69616;Laerm;56822;52.516;4.708;2023-06-14T00:03:49;43.24;39.08;50.30;;
69616;Laerm;56822;52.516;4.708;2023-06-14T00:03:59;44.58;39.51;50.55;;
69616;Laerm;56822;52.516;4.708;2023-06-14T00:04:11;45.42;39.87;51.44;;
69616;Laerm;56822;52.516;4.708;2023-06-14T00:04:21;45.70;41.02;50.52;;
69616;Laerm;56822;52.516;4.708;2023-06-14T00:04:35;47.52;40.44;55.38;;
69616;Laerm;56822;52.516;4.708;2023-06-14T00:04:46;47.90;41.92;55.07;;
69616;Laerm;56822;52.516;4.708;2023-06-14T00:04:58;44.56;39.56;50.63;;
69616;Laerm;56822;52.516;4.708;2023-06-14T00:05:09;44.29;38.61;50.60;;
69616;Laerm;56822;52.516;4.708;2023-06-14T00:05:22;43.29;38.52;50.24;;
69616;Laerm;56822;52.516;4.708;2023-06-14T00:05:33;42.32;37.11;46.26;;
69616;Laerm;56822;52.516;4.708;2023-06-14T00:05:48;39.44;34.66;45.66;;
69616;Laerm;56822;52.516;4.708;2023-06-14T00:05:58;40.31;35.74;45.32;;
69616;Laerm;56822;52.516;4.708;2023-06-14T00:06:09;41.15;37.18;44.51;;
69616;Laerm;56822;52.516;4.708;2023-06-14T00:06:19;39.39;36.40;43.73;;
69616;Laerm;56822;52.516;4.708;2023-06-14T00:06:29;39.74;36.80;42.16;;
69616;Laerm;56822;52.516;4.708;2023-06-14T00:06:40;41.26;38.38;43.74;;
69616;Laerm;56822;52.516;4.708;2023-06-14T00:06:51;42.10;39.81;45.01;;
69616;Laerm;56822;52.516;4.708;2023-06-14T00:07:02;41.99;38.76;45.81;;
69616;Laerm;56822;52.516;4.708;2023-06-14T00:07:13;38.32;35.22;42.45;;
69616;Laerm;56822;52.516;4.708;2023-06-14T00:07:33;40.57;35.53;49.89;;
69616;Laerm;56822;52.516;4.708;2023-06-14T00:07:43;39.90;35.47;47.67;;
69616;Laerm;56822;52.516;4.708;2023-06-14T00:07:54;44.16;38.89;48.78;;
69616;Laerm;56822;52.516;4.708;2023-06-14T00:08:04;44.19;39.73;49.03;;
69616;Laerm;56822;52.516;4.708;2023-06-14T00:08:17;42.74;39.60;47.71;;
69616;Laerm;56822;52.516;4.708;2023-06-14T00:08:28;41.14;37.10;46.03;;
69616;Laerm;56822;52.516;4.708;2023-06-14T00:08:39;40.78;36.94;45.02;;
69616;Laerm;56822;52.516;4.708;2023-06-14T00:08:50;43.49;40.49;48.02;;
69616;Laerm;56822;52.516;4.708;2023-06-14T00:09:01;43.52;38.81;48.09;;
69616;Laerm;56822;52.516;4.708;2023-06-14T00:09:12;41.39;37.30;48.99;;
69616;Laerm;56822;52.516;4.708;2023-06-14T00:09:27;42.90;37.99;50.00;;
69616;Laerm;56822;52.516;4.708;2023-06-14T00:09:38;45.33;41.48;51.71;;
69616;Laerm;56822;52.516;4.708;2023-06-14T00:09:48;43.70;39.25;50.90;;
69616;Laerm;56822;52.516;4.708;2023-06-14T00:09:58;45.45;39.89;52.20;;
69616;Laerm;56822;52.516;4.708;2023-06-14T00:10:09;46.77;41.39;51.61;;
69616;Laerm;56822;52.516;4.708;2023-06-14T00:10:20;42.60;36.86;50.16;;
69616;Laerm;56822;52.516;4.708;2023-06-14T00:10:30;40.46;36.77;45.30;;
69616;Laerm;56822;52.516;4.708;2023-06-14T00:10:41;42.95;38.81;46.57;;
69616;Laerm;56822;52.516;4.708;2023-06-14T00:10:52;44.21;38.88;50.51;;
69616;Laerm;56822;52.516;4.708;2023-06-14T00:11:02;41.40;35.79;47.45;;
69616;Laerm;56822;52.516;4.708;2023-06-14T00:11:12;40.19;34.23;49.37;;
69616;Laerm;56822;52.516;4.708;2023-06-14T00:11:22;43.75;36.51;50.47;;
69616;Laerm;56822;52.516;4.708;2023-06-14T00:11:33;45.62;36.51;58.64;;
69616;Laerm;56822;52.516;4.708;2023-06-14T00:11:43;53.46;36.34;64.30;;
69616;Laerm;56822;52.516;4.708;2023-06-14T00:11:54;50.46;37.05;63.08;;
69616;Laerm;56822;52.516;4.708;2023-06-14T00:12:04;43.62;38.45;48.22;;
69616;Laerm;56822;52.516;4.708;2023-06-14T00:12:16;44.70;38.08;50.44;;
69616;Laerm;56822;52.516;4.708;2023-06-14T00:12:26;43.15;39.48;48.33;;
69616;Laerm;56822;52.516;4.708;2023-06-14T00:12:37;43.82;39.98;47.85;;
69616;Laerm;56822;52.516;4.708;2023-06-14T00:12:48;45.05;40.57;49.78;;
69616;Laerm;56822;52.516;4.708;2023-06-14T00:12:58;45.44;39.93;50.66;;
69616;Laerm;56822;52.516;4.708;2023-06-14T00:13:10;46.16;39.97;51.82;;
69616;Laerm;56822;52.516;4.708;2023-06-14T00:13:20;45.36;39.19;51.27;;
69616;Laerm;56822;52.516;4.708;2023-06-14T00:13:30;46.43;39.15;52.02;;
69616;Laerm;56822;52.516;4.708;2023-06-14T00:13:41;40.72;38.46;43.49;;
69616;Laerm;56822;52.516;4.708;2023-06-14T00:13:53;42.37;38.51;47.19;;
69616;Laerm;56822;52.516;4.708;2023-06-14T00:14:03;44.44;36.46;56.79;;
69616;Laerm;56822;52.516;4.708;2023-06-14T00:14:14;40.45;37.09;47.03;;
69616;Laerm;56822;52.516;4.708;2023-06-14T00:14:24;54.03;38.29;65.53;;
69616;Laerm;56822;52.516;4.708;2023-06-14T00:14:34;56.13;35.87;66.21;;
69616;Laerm;56822;52.516;4.708;2023-06-14T00:14:45;51.70;36.78;64.57;;
69616;Laerm;56822;52.516;4.708;2023-06-14T00:14:55;49.03;35.93;61.05;;
69616;Laerm;56822;52.516;4.708;2023-06-14T00:15:06;48.28;39.11;59.71;;
69616;Laerm;56822;52.516;4.708;2023-06-14T00:15:16;42.29;37.00;55.33;;
69616;Laerm;56822;52.516;4.708;2023-06-14T00:15:26;41.19;36.62;50.19;;
69616;Laerm;56822;52.516;4.708;2023-06-14T00:15:38;37.94;35.17;42.05;;
69616;Laerm;56822;52.516;4.708;2023-06-14T00:15:48;37.10;34.71;41.17;;
69616;Laerm;56822;52.516;4.708;2023-06-14T00:15:58;41.46;39.16;45.87;;
69616;Laerm;56822;52.516;4.708;2023-06-14T00:16:08;40.72;35.53;50.48;;
69616;Laerm;56822;52.516;4.708;2023-06-14T00:16:19;38.09;35.59;40.83;;
69616;Laerm;56822;52.516;4.708;2023-06-14T00:16:29;37.02;33.96;40.26;;
69616;Laerm;56822;52.516;4.708;2023-06-14T00:16:40;37.56;35.08;44.74;;
69616;Laerm;56822;52.516;4.708;2023-06-14T00:16:52;37.27;34.00;42.44;;
69616;Laerm;56822;52.516;4.708;2023-06-14T00:17:02;40.38;35.88;50.79;;
69616;Laerm;56822;52.516;4.708;2023-06-14T00:17:13;47.16;38.40;59.92;;
69616;Laerm;56822;52.516;4.708;2023-06-14T00:17:26;52.97;38.82;63.27;;
69616;Laerm;56822;52.516;4.708;2023-06-14T00:17:40;49.11;37.89;59.81;;
69616;Laerm;56822;52.516;4.708;2023-06-14T00:17:50;44.36;39.02;56.29;;
69616;Laerm;56822;52.516;4.708;2023-06-14T00:18:01;41.99;36.91;55.86;;
69616;Laerm;56822;52.516;4.708;2023-06-14T00:18:11;47.03;36.16;59.35;;
69616;Laerm;56822;52.516;4.708;2023-06-14T00:18:22;53.06;37.31;61.44;;
69616;Laerm;56822;52.516;4.708;2023-06-14T00:18:39;47.20;34.67;60.30;;
69616;Laerm;56822;52.516;4.708;2023-06-14T00:18:49;37.12;34.26;43.39;;
69616;Laerm;56822;52.516;4.708;2023-06-14T00:19:01;37.37;34.40;40.67;;
69616;Laerm;56822;52.516;4.708;2023-06-14T00:19:13;40.01;34.73;45.63;;
69616;Laerm;56822;52.516;4.708;2023-06-14T00:19:24;36.40;34.03;39.05;;
69616;Laerm;56822;52.516;4.708;2023-06-14T00:19:35;37.34;33.55;40.30;;
69616;Laerm;56822;52.516;4.708;2023-06-14T00:19:46;36.88;33.34;43.92;;
69616;Laerm;56822;52.516;4.708;2023-06-14T00:20:02;38.79;35.37;43.78;;
69616;Laerm;56822;52.516;4.708;2023-06-14T00:20:16;39.40;35.87;45.00;;
69616;Laerm;56822;52.516;4.708;2023-06-14T00:20:27;37.39;34.58;40.12;;
69616;Laerm;56822;52.516;4.708;2023-06-14T00:20:38;39.87;37.08;44.67;;
69616;Laerm;56822;52.516;4.708;2023-06-14T00:20:49;40.48;37.68;44.05;;
69616;Laerm;56822;52.516;4.708;2023-06-14T00:21:00;41.88;38.39;46.10;;
69616;Laerm;56822;52.516;4.708;2023-06-14T00:21:12;44.51;40.28;48.20;;
69616;Laerm;56822;52.516;4.708;2023-06-14T00:21:22;42.71;38.82;48.27;;
69616;Laerm;56822;52.516;4.708;2023-06-14T00:21:32;39.77;36.82;44.55;;
69616;Laerm;56822;52.516;4.708;2023-06-14T00:21:43;39.53;35.85;42.33;;
69616;Laerm;56822;52.516;4.708;2023-06-14T00:21:53;42.22;35.64;56.29;;
69616;Laerm;56822;52.516;4.708;2023-06-14T00:22:03;51.44;36.79;66.18;;
69616;Laerm;56822;52.516;4.708;2023-06-14T00:22:14;44.14;39.72;58.01;;
69616;Laerm;56822;52.516;4.708;2023-06-14T00:22:24;40.71;37.61;43.47;;
69616;Laerm;56822;52.516;4.708;2023-06-14T00:22:35;41.99;38.24;45.13;;
69616;Laerm;56822;52.516;4.708;2023-06-14T00:22:47;40.53;37.39;45.53;;
69616;Laerm;56822;52.516;4.708;2023-06-14T00:22:58;41.40;37.04;44.18;;
69616;Laerm;56822;52.516;4.708;2023-06-14T00:23:08;40.97;38.18;44.39;;
69616;Laerm;56822;52.516;4.708;2023-06-14T00:23:19;41.94;38.12;45.71;;
69616;Laerm;56822;52.516;4.708;2023-06-14T00:23:29;44.10;40.19;50.87;;
69616;Laerm;56822;52.516;4.708;2023-06-14T00:23:40;42.91;40.00;46.03;;
69616;Laerm;56822;52.516;4.708;2023-06-14T00:23:50;42.14;39.28;45.04;;
69616;Laerm;56822;52.516;4.708;2023-06-14T00:24:00;41.24;36.47;46.96;;
69616;Laerm;56822;52.516;4.708;2023-06-14T00:24:11;38.63;36.04;42.19;;
69616;Laerm;56822;52.516;4.708;2023-06-14T00:24:21;40.30;36.52;43.90;;
69616;Laerm;56822;52.516;4.708;2023-06-14T00:24:31;43.74;40.21;48.33;;
69616;Laerm;56822;52.516;4.708;2023-06-14T00:24:41;41.61;37.60;45.91;;
69616;Laerm;56822;52.516;4.708;2023-06-14T00:24:52;43.71;39.90;49.73;;
69616;Laerm;56822;52.516;4.708;2023-06-14T00:25:02;46.70;42.35;49.48;;
69616;Laerm;56822;52.516;4.708;2023-06-14T00:25:12;45.39;39.95;51.31;;
69616;Laerm;56822;52.516;4.708;2023-06-14T00:25:23;42.96;39.95;46.03;;
69616;Laerm;56822;52.516;4.708;2023-06-14T00:25:35;37.65;33.71;42.24;;
69616;Laerm;56822;52.516;4.708;2023-06-14T00:25:45;39.31;34.73;45.15;;
69616;Laerm;56822;52.516;4.708;2023-06-14T00:25:56;39.13;36.18;48.43;;
69616;Laerm;56822;52.516;4.708;2023-06-14T00:26:06;40.29;36.68;45.94;;
69616;Laerm;56822;52.516;4.708;2023-06-14T00:26:16;39.95;34.69;46.20;;
69616;Laerm;56822;52.516;4.708;2023-06-14T00:26:26;39.09;34.24;45.78;;
69616;Laerm;56822;52.516;4.708;2023-06-14T00:26:37;40.24;35.30;45.30;;
69616;Laerm;56822;52.516;4.708;2023-06-14T00:26:47;34.27;31.95;36.92;;
69616;Laerm;56822;52.516;4.708;2023-06-14T00:26:57;35.52;32.59;40.17;;
69616;Laerm;56822;52.516;4.708;2023-06-14T00:27:08;40.66;35.22;47.68;;
69616;Laerm;56822;52.516;4.708;2023-06-14T00:27:18;37.10;33.62;41.07;;
69616;Laerm;56822;52.516;4.708;2023-06-14T00:27:28;35.15;32.77;44.13;;
69616;Laerm;56822;52.516;4.708;2023-06-14T00:27:39;35.91;33.01;40.65;;
69616;Laerm;56822;52.516;4.708;2023-06-14T00:27:49;39.17;35.57;45.02;;
69616;Laerm;56822;52.516;4.708;2023-06-14T00:27:59;39.58;37.04;42.39;;
69616;Laerm;56822;52.516;4.708;2023-06-14T00:28:09;37.75;35.20;40.55;;
69616;Laerm;56822;52.516;4.708;2023-06-14T00:28:20;38.38;35.50;41.66;;
69616;Laerm;56822;52.516;4.708;2023-06-14T00:28:30;39.07;35.74;43.09;;
69616;Laerm;56822;52.516;4.708;2023-06-14T00:28:40;38.34;35.27;41.00;;
69616;Laerm;56822;52.516;4.708;2023-06-14T00:28:51;38.22;32.86;42.97;;
69616;Laerm;56822;52.516;4.708;2023-06-14T00:29:02;37.04;33.69;40.64;;
69616;Laerm;56822;52.516;4.708;2023-06-14T00:29:12;39.83;35.34;44.78;;
69616;Laerm;56822;52.516;4.708;2023-06-14T00:29:22;38.90;35.59;43.57;;
69616;Laerm;56822;52.516;4.708;2023-06-14T00:29:32;38.17;35.50;41.91;;
69616;Laerm;56822;52.516;4.708;2023-06-14T00:29:43;37.50;34.99;39.91;;
69616;Laerm;56822;52.516;4.708;2023-06-14T00:29:53;38.38;34.61;42.30;;
69616;Laerm;56822;52.516;4.708;2023-06-14T00:30:03;42.18;37.56;47.72;;
69616;Laerm;56822;52.516;4.708;2023-06-14T00:30:14;41.81;38.97;46.24;;
69616;Laerm;56822;52.516;4.708;2023-06-14T00:30:24;43.15;39.25;47.01;;
69616;Laerm;56822;52.516;4.708;2023-06-14T00:30:35;37.64;35.60;41.26;;
69616;Laerm;56822;52.516;4.708;2023-06-14T00:30:45;39.57;36.73;42.96;;
69616;Laerm;56822;52.516;4.708;2023-06-14T00:30:56;38.61;36.02;43.76;;
69616;Laerm;56822;52.516;4.708;2023-06-14T00:31:06;38.71;35.53;42.81;;
69616;Laerm;56822;52.516;4.708;2023-06-14T00:31:17;37.89;35.31;41.73;;
69616;Laerm;56822;52.516;4.708;2023-06-14T00:31:27;40.91;37.68;45.16;;
69616;Laerm;56822;52.516;4.708;2023-06-14T00:31:37;42.60;36.08;46.73;;
69616;Laerm;56822;52.516;4.708;2023-06-14T00:31:47;43.61;35.96;58.23;;
69616;Laerm;56822;52.516;4.708;2023-06-14T00:31:58;52.47;38.67;64.01;;
69616;Laerm;56822;52.516;4.708;2023-06-14T00:32:08;49.22;35.31;63.09;;
69616;Laerm;56822;52.516;4.708;2023-06-14T00:32:18;38.91;35.51;42.24;;
69616;Laerm;56822;52.516;4.708;2023-06-14T00:32:29;37.22;34.38;40.53;;
69616;Laerm;56822;52.516;4.708;2023-06-14T00:32:39;37.16;34.79;39.72;;
69616;Laerm;56822;52.516;4.708;2023-06-14T00:32:50;42.33;36.22;48.48;;
69616;Laerm;56822;52.516;4.708;2023-06-14T00:33:01;41.06;37.74;44.83;;
69616;Laerm;56822;52.516;4.708;2023-06-14T00:33:11;42.48;38.70;45.66;;
69616;Laerm;56822;52.516;4.708;2023-06-14T00:33:22;45.47;41.64;49.70;;
69616;Laerm;56822;52.516;4.708;2023-06-14T00:33:32;44.78;41.46;50.76;;
69616;Laerm;56822;52.516;4.708;2023-06-14T00:33:42;40.89;36.55;45.22;;
69616;Laerm;56822;52.516;4.708;2023-06-14T00:33:53;39.72;36.10;44.72;;
69616;Laerm;56822;52.516;4.708;2023-06-14T00:34:03;42.27;39.87;49.10;;
69616;Laerm;56822;52.516;4.708;2023-06-14T00:34:13;44.22;40.55;47.44;;
69616;Laerm;56822;52.516;4.708;2023-06-14T00:34:24;41.71;37.13;45.83;;
69616;Laerm;56822;52.516;4.708;2023-06-14T00:34:34;39.30;36.71;42.46;;
69616;Laerm;56822;52.516;4.708;2023-06-14T00:34:44;44.39;38.58;50.22;;
69616;Laerm;56822;52.516;4.708;2023-06-14T00:34:54;47.90;41.82;56.15;;
69616;Laerm;56822;52.516;4.708;2023-06-14T00:35:05;46.15;40.77;51.65;;
69616;Laerm;56822;52.516;4.708;2023-06-14T00:35:15;42.09;36.70;52.51;;
69616;Laerm;56822;52.516;4.708;2023-06-14T00:35:26;51.37;36.00;61.47;;
69616;Laerm;56822;52.516;4.708;2023-06-14T00:35:36;53.12;37.74;61.49;;
69616;Laerm;56822;52.516;4.708;2023-06-14T00:35:46;38.32;34.60;44.70;;
69616;Laerm;56822;52.516;4.708;2023-06-14T00:35:57;35.42;32.51;42.68;;
69616;Laerm;56822;52.516;4.708;2023-06-14T00:36:07;35.57;31.79;40.42;;
69616;Laerm;56822;52.516;4.708;2023-06-14T00:36:17;36.62;33.49;39.91;;
69616;Laerm;56822;52.516;4.708;2023-06-14T00:36:28;40.73;36.86;43.41;;
69616;Laerm;56822;52.516;4.708;2023-06-14T00:36:38;41.22;37.19;45.15;;
69616;Laerm;56822;52.516;4.708;2023-06-14T00:36:48;41.53;37.08;50.47;;
69616;Laerm;56822;52.516;4.708;2023-06-14T00:36:59;39.43;34.70;47.60;;
69616;Laerm;56822;52.516;4.708;2023-06-14T00:37:09;38.90;33.97;47.43;;
69616;Laerm;56822;52.516;4.708;2023-06-14T00:37:19;37.16;34.63;41.57;;
69616;Laerm;56822;52.516;4.708;2023-06-14T00:37:30;37.39;33.84;41.38;;
69616;Laerm;56822;52.516;4.708;2023-06-14T00:37:40;34.57;32.30;41.51;;
69616;Laerm;56822;52.516;4.708;2023-06-14T00:37:51;34.92;31.77;39.71;;
69616;Laerm;56822;52.516;4.708;2023-06-14T00:38:01;37.00;33.10;45.56;;
69616;Laerm;56822;52.516;4.708;2023-06-14T00:38:11;41.51;35.05;48.52;;
69616;Laerm;56822;52.516;4.708;2023-06-14T00:38:22;41.57;37.22;46.77;;
69616;Laerm;56822;52.516;4.708;2023-06-14T00:38:32;41.31;37.18;47.33;;
69616;Laerm;56822;52.516;4.708;2023-06-14T00:38:42;39.42;36.40;44.50;;
69616;Laerm;56822;52.516;4.708;2023-06-14T00:38:52;40.21;37.05;44.71;;
69616;Laerm;56822;52.516;4.708;2023-06-14T00:39:03;42.41;38.58;46.28;;
69616;Laerm;56822;52.516;4.708;2023-06-14T00:39:13;44.11;37.20;51.75;;
69616;Laerm;56822;52.516;4.708;2023-06-14T00:39:24;38.02;35.15;40.69;;
69616;Laerm;56822;52.516;4.708;2023-06-14T00:39:34;41.21;36.38;47.71;;
69616;Laerm;56822;52.516;4.708;2023-06-14T00:39:45;42.72;37.50;48.59;;
69616;Laerm;56822;52.516;4.708;2023-06-14T00:39:55;43.05;39.95;46.26;;
69616;Laerm;56822;52.516;4.708;2023-06-14T00:40:06;39.67;34.89;42.63;;
69616;Laerm;56822;52.516;4.708;2023-06-14T00:40:16;35.24;33.00;38.45;;
69616;Laerm;56822;52.516;4.708;2023-06-14T00:40:26;35.20;32.51;40.63;;
69616;Laerm;56822;52.516;4.708;2023-06-14T00:40:37;38.23;35.47;41.99;;
69616;Laerm;56822;52.516;4.708;2023-06-14T00:40:47;39.26;35.41;44.69;;
69616;Laerm;56822;52.516;4.708;2023-06-14T00:40:57;43.48;37.07;49.33;;
69616;Laerm;56822;52.516;4.708;2023-06-14T00:41:08;42.82;37.22;49.28;;
69616;Laerm;56822;52.516;4.708;2023-06-14T00:41:18;43.51;37.39;49.76;;
69616;Laerm;56822;52.516;4.708;2023-06-14T00:41:28;39.74;35.92;45.91;;
69616;Laerm;56822;52.516;4.708;2023-06-14T00:41:39;42.41;36.91;45.90;;
69616;Laerm;56822;52.516;4.708;2023-06-14T00:41:49;40.68;36.05;44.07;;
69616;Laerm;56822;52.516;4.708;2023-06-14T00:41:59;37.74;34.56;41.36;;
69616;Laerm;56822;52.516;4.708;2023-06-14T00:42:09;38.56;34.63;43.94;;
69616;Laerm;56822;52.516;4.708;2023-06-14T00:42:26;41.45;37.82;45.46;;
69616;Laerm;56822;52.516;4.708;2023-06-14T00:42:37;42.65;38.29;48.47;;
69616;Laerm;56822;52.516;4.708;2023-06-14T00:42:47;40.34;35.79;43.79;;
69616;Laerm;56822;52.516;4.708;2023-06-14T00:42:57;39.14;36.02;42.77;;
69616;Laerm;56822;52.516;4.708;2023-06-14T00:43:08;41.98;38.16;47.15;;
69616;Laerm;56822;52.516;4.708;2023-06-14T00:43:18;43.93;41.41;46.67;;
69616;Laerm;56822;52.516;4.708;2023-06-14T00:43:28;45.02;40.32;50.16;;
69616;Laerm;56822;52.516;4.708;2023-06-14T00:43:38;41.63;37.71;48.80;;
69616;Laerm;56822;52.516;4.708;2023-06-14T00:43:49;40.40;37.11;44.10;;
69616;Laerm;56822;52.516;4.708;2023-06-14T00:43:59;44.00;39.44;48.27;;
69616;Laerm;56822;52.516;4.708;2023-06-14T00:44:10;43.20;38.97;47.37;;
69616;Laerm;56822;52.516;4.708;2023-06-14T00:44:20;43.09;40.41;46.74;;
69616;Laerm;56822;52.516;4.708;2023-06-14T00:44:31;42.83;39.64;46.85;;
69616;Laerm;56822;52.516;4.708;2023-06-14T00:44:42;44.86;40.98;49.16;;
69616;Laerm;56822;52.516;4.708;2023-06-14T00:44:52;44.62;39.64;54.37;;
69616;Laerm;56822;52.516;4.708;2023-06-14T00:45:02;45.35;40.56;56.84;;
69616;Laerm;56822;52.516;4.708;2023-06-14T00:45:13;44.91;42.03;48.80;;
69616;Laerm;56822;52.516;4.708;2023-06-14T00:45:23;46.05;39.85;58.03;;
69616;Laerm;56822;52.516;4.708;2023-06-14T00:45:33;44.90;39.84;57.61;;
69616;Laerm;56822;52.516;4.708;2023-06-14T00:45:45;46.21;38.07;59.48;;
69616;Laerm;56822;52.516;4.708;2023-06-14T00:45:56;50.07;37.20;65.46;;
69616;Laerm;56822;52.516;4.708;2023-06-14T00:46:06;46.72;39.27;61.42;;
69616;Laerm;56822;52.516;4.708;2023-06-14T00:46:17;49.99;36.12;66.16;;
69616;Laerm;56822;52.516;4.708;2023-06-14T00:46:27;49.65;34.17;64.66;;
69616;Laerm;56822;52.516;4.708;2023-06-14T00:46:37;38.19;32.92;47.87;;
69616;Laerm;56822;52.516;4.708;2023-06-14T00:46:48;38.96;32.28;46.48;;
69616;Laerm;56822;52.516;4.708;2023-06-14T00:46:58;35.40;32.97;40.36;;
69616;Laerm;56822;52.516;4.708;2023-06-14T00:47:08;37.38;34.17;46.11;;
69616;Laerm;56822;52.516;4.708;2023-06-14T00:47:19;40.85;36.19;46.50;;
69616;Laerm;56822;52.516;4.708;2023-06-14T00:47:29;47.73;37.09;60.53;;
69616;Laerm;56822;52.516;4.708;2023-06-14T00:47:40;47.73;38.14;60.29;;
69616;Laerm;56822;52.516;4.708;2023-06-14T00:47:51;41.24;38.32;46.89;;
69616;Laerm;56822;52.516;4.708;2023-06-14T00:48:05;45.69;36.89;58.66;;
69616;Laerm;56822;52.516;4.708;2023-06-14T00:48:16;42.56;38.93;47.06;;
69616;Laerm;56822;52.516;4.708;2023-06-14T00:48:27;48.34;39.56;63.86;;
69616;Laerm;56822;52.516;4.708;2023-06-14T00:48:38;48.91;39.69;65.50;;
69616;Laerm;56822;52.516;4.708;2023-06-14T00:48:49;42.92;39.24;45.58;;
69616;Laerm;56822;52.516;4.708;2023-06-14T00:49:00;43.87;40.83;46.68;;
69616;Laerm;56822;52.516;4.708;2023-06-14T00:49:12;43.37;40.29;46.97;;
69616;Laerm;56822;52.516;4.708;2023-06-14T00:49:25;42.49;38.47;48.10;;
69616;Laerm;56822;52.516;4.708;2023-06-14T00:49:35;41.20;37.25;45.12;;
69616;Laerm;56822;52.516;4.708;2023-06-14T00:49:54;42.56;39.50;47.13;;
69616;Laerm;56822;52.516;4.708;2023-06-14T00:50:08;41.22;38.22;45.33;;
69616;Laerm;56822;52.516;4.708;2023-06-14T00:50:19;41.66;38.62;46.02;;
69616;Laerm;56822;52.516;4.708;2023-06-14T00:50:30;41.56;37.76;45.26;;
69616;Laerm;56822;52.516;4.708;2023-06-14T00:50:42;41.31;38.43;45.02;;
69616;Laerm;56822;52.516;4.708;2023-06-14T00:50:55;40.58;37.63;44.45;;
69616;Laerm;56822;52.516;4.708;2023-06-14T00:51:06;41.39;38.75;44.57;;
69616;Laerm;56822;52.516;4.708;2023-06-14T00:51:16;41.18;37.94;45.60;;
69616;Laerm;56822;52.516;4.708;2023-06-14T00:51:27;41.56;38.02;45.58;;
69616;Laerm;56822;52.516;4.708;2023-06-14T00:51:37;42.29;37.39;47.34;;
69616;Laerm;56822;52.516;4.708;2023-06-14T00:51:47;45.14;41.69;49.93;;
69616;Laerm;56822;52.516;4.708;2023-06-14T00:51:58;40.55;37.06;44.04;;
69616;Laerm;56822;52.516;4.708;2023-06-14T00:52:08;40.43;37.71;44.29;;
69616;Laerm;56822;52.516;4.708;2023-06-14T00:52:22;44.40;38.85;53.05;;
69616;Laerm;56822;52.516;4.708;2023-06-14T00:52:34;43.15;36.99;49.58;;
69616;Laerm;56822;52.516;4.708;2023-06-14T00:52:44;40.56;33.95;48.31;;
69616;Laerm;56822;52.516;4.708;2023-06-14T00:52:55;44.68;34.30;60.14;;
69616;Laerm;56822;52.516;4.708;2023-06-14T00:53:06;37.16;33.08;46.57;;
69616;Laerm;56822;52.516;4.708;2023-06-14T00:53:16;45.77;33.71;60.63;;
69616;Laerm;56822;52.516;4.708;2023-06-14T00:53:28;54.11;37.80;62.24;;
69616;Laerm;56822;52.516;4.708;2023-06-14T00:53:39;53.59;36.64;61.76;;
69616;Laerm;56822;52.516;4.708;2023-06-14T00:53:51;41.01;38.55;44.07;;
69616;Laerm;56822;52.516;4.708;2023-06-14T00:54:01;41.42;37.95;45.07;;
69616;Laerm;56822;52.516;4.708;2023-06-14T00:54:15;42.66;39.60;47.20;;
69616;Laerm;56822;52.516;4.708;2023-06-14T00:54:46;48.02;41.78;59.37;;
69616;Laerm;56822;52.516;4.708;2023-06-14T00:54:58;57.39;42.59;65.64;;
69616;Laerm;56822;52.516;4.708;2023-06-14T00:55:09;61.11;54.17;65.70;;
69616;Laerm;56822;52.516;4.708;2023-06-14T00:55:19;57.82;46.84;64.81;;
69616;Laerm;56822;52.516;4.708;2023-06-14T00:55:30;48.24;42.82;55.12;;
69616;Laerm;56822;52.516;4.708;2023-06-14T00:55:43;45.46;41.47;50.33;;
69616;Laerm;56822;52.516;4.708;2023-06-14T00:55:53;46.26;40.86;54.23;;
69616;Laerm;56822;52.516;4.708;2023-06-14T00:56:03;52.02;39.79;61.44;;
69616;Laerm;56822;52.516;4.708;2023-06-14T00:56:14;45.89;38.34;60.03;;
69616;Laerm;56822;52.516;4.708;2023-06-14T00:56:25;47.84;38.25;57.98;;
69616;Laerm;56822;52.516;4.708;2023-06-14T00:56:36;42.19;36.13;51.68;;
69616;Laerm;56822;52.516;4.708;2023-06-14T00:56:50;35.05;31.59;40.50;;
69616;Laerm;56822;52.516;4.708;2023-06-14T00:57:00;39.71;30.79;55.44;;
69616;Laerm;56822;52.516;4.708;2023-06-14T00:57:11;42.21;31.45;57.01;;
69616;Laerm;56822;52.516;4.708;2023-06-14T00:57:25;38.03;30.59;56.79;;
69616;Laerm;56822;52.516;4.708;2023-06-14T00:57:36;44.99;30.81;58.02;;
69616;Laerm;56822;52.516;4.708;2023-06-14T00:57:48;44.73;31.17;59.61;;
69616;Laerm;56822;52.516;4.708;2023-06-14T00:57:59;36.68;30.50;50.39;;
69616;Laerm;56822;52.516;4.708;2023-06-14T00:58:10;48.39;32.79;59.84;;
69616;Laerm;56822;52.516;4.708;2023-06-14T00:58:21;56.30;35.87;64.61;;
69616;Laerm;56822;52.516;4.708;2023-06-14T00:58:32;53.81;35.32;65.11;;
69616;Laerm;56822;52.516;4.708;2023-06-14T00:58:42;47.16;37.47;59.37;;
69616;Laerm;56822;52.516;4.708;2023-06-14T00:58:53;53.36;36.49;62.80;;
69616;Laerm;56822;52.516;4.708;2023-06-14T00:59:03;54.82;35.83;64.31;;
69616;Laerm;56822;52.516;4.708;2023-06-14T00:59:13;37.98;34.05;52.81;;
69616;Laerm;56822;52.516;4.708;2023-06-14T00:59:25;37.72;34.08;45.10;;
69616;Laerm;56822;52.516;4.708;2023-06-14T00:59:45;36.43;33.48;40.66;;
69616;Laerm;56822;52.516;4.708;2023-06-14T00:59:55;41.76;34.86;49.97;;
69616;Laerm;56822;52.516;4.708;2023-06-14T01:00:06;44.73;41.22;49.22;;
69616;Laerm;56822;52.516;4.708;2023-06-14T01:00:18;46.97;41.85;52.92;;
69616;Laerm;56822;52.516;4.708;2023-06-14T01:00:29;46.05;37.56;53.18;;
69616;Laerm;56822;52.516;4.708;2023-06-14T01:00:39;42.70;38.49;47.14;;
69616;Laerm;56822;52.516;4.708;2023-06-14T01:00:49;43.76;38.05;47.19;;
69616;Laerm;56822;52.516;4.708;2023-06-14T01:01:01;39.27;34.40;43.93;;
69616;Laerm;56822;52.516;4.708;2023-06-14T01:01:12;37.55;34.36;40.74;;
69616;Laerm;56822;52.516;4.708;2023-06-14T01:01:24;40.49;36.06;45.89;;